createdAt,value
2022-11-01T00:01:19.545Z,100113.31
2022-11-01T00:03:50.166Z,100109.06
2022-11-01T00:06:18.507Z,100113.34
2022-11-01T00:08:46.767Z,100110.75
2022-11-01T00:11:16.235Z,100103.94
2022-11-01T00:13:46.514Z,100113.31
2022-11-01T00:16:15.243Z,100112.47
2022-11-01T00:18:43.694Z,100111.63
2022-11-01T00:21:13.459Z,100121.88
2022-11-01T00:23:41.745Z,100111.63
2022-11-01T00:26:11.207Z,100106.53
2022-11-01T00:28:39.599Z,100115.91
2022-11-01T00:31:11.759Z,100116.75
2022-11-01T00:33:41.508Z,100111.63
2022-11-01T00:36:09.974Z,100105.66
2022-11-01T00:38:40.114Z,100089.44
2022-11-01T00:41:08.499Z,100094.56
2022-11-01T00:43:37.402Z,100104.78
2022-11-01T00:46:06.138Z,100106.50
2022-11-01T00:48:34.406Z,100094.56
2022-11-01T00:51:02.678Z,100086.03
2022-11-01T00:53:30.933Z,100075.81
2022-11-01T00:56:03.196Z,100095.41
2022-11-01T00:58:31.567Z,100092.88
2022-11-01T01:01:00.154Z,100090.31
2022-11-01T01:03:28.536Z,100086.91
2022-11-01T01:05:56.897Z,100076.66
2022-11-01T01:08:25.601Z,100077.50
2022-11-01T01:10:54.147Z,100071.53
2022-11-01T01:13:24.278Z,100074.13
2022-11-01T01:15:52.466Z,100080.09
2022-11-01T01:18:21.276Z,100069.00
2022-11-01T01:20:49.606Z,100063.88
2022-11-01T01:23:17.913Z,100062.16
2022-11-01T01:25:46.221Z,100068.97
2022-11-01T01:28:14.525Z,100065.59
2022-11-01T01:30:44.215Z,100072.38
2022-11-01T01:35:45.978Z,100057.91
2022-11-01T01:38:14.295Z,100057.06
2022-11-01T01:40:42.840Z,100059.59
2022-11-01T01:43:13.036Z,100053.66
2022-11-01T01:45:42.494Z,100051.94
2022-11-01T01:48:16.266Z,100046.81
2022-11-01T01:50:47.508Z,100043.41
2022-11-01T01:53:18.958Z,100042.56
2022-11-01T01:55:50.555Z,100040.00
2022-11-01T01:58:20.774Z,100034.84
2022-11-01T02:00:49.227Z,100029.72
2022-11-01T02:03:19.274Z,100030.56
2022-11-01T02:05:50.285Z,100026.34
2022-11-01T02:08:27.007Z,100029.75
2022-11-01T02:10:55.698Z,100022.06
2022-11-01T02:13:24.033Z,100026.31
2022-11-01T02:16:02.416Z,100030.59
2022-11-01T02:18:36.957Z,100027.19
2022-11-01T02:21:16.249Z,100033.13
2022-11-01T02:23:55.723Z,100038.25
2022-11-01T02:26:33.781Z,100039.94
2022-11-01T02:29:12.734Z,100033.13
2022-11-01T02:31:42.854Z,100034.81
2022-11-01T02:34:16.315Z,100027.16
2022-11-01T02:36:47.047Z,100027.16
2022-11-01T02:39:21.577Z,100023.72
2022-11-01T02:41:52.493Z,100019.47
2022-11-01T02:44:24.847Z,100022.84
2022-11-01T02:47:02.890Z,100025.41
2022-11-01T02:49:34.797Z,100022.84
2022-11-01T02:52:04.374Z,100021.13
2022-11-01T02:54:33.456Z,100017.72
2022-11-01T02:57:06.586Z,100021.97
2022-11-01T02:59:43.986Z,100019.44
2022-11-01T03:02:15.688Z,100021.16
2022-11-01T03:04:45.447Z,100016.03
2022-11-01T03:07:15.247Z,100016.88
2022-11-01T03:09:43.896Z,100024.53
2022-11-01T03:12:16.994Z,100023.69
2022-11-01T03:14:51.278Z,100024.53
2022-11-01T03:17:24.554Z,100020.25
2022-11-01T03:20:00.634Z,100016.88
2022-11-01T03:22:31.895Z,100027.94
2022-11-01T03:25:05.665Z,100017.66
2022-11-01T03:27:35.714Z,100019.38
2022-11-01T03:30:05.816Z,100021.06
2022-11-01T03:32:37.773Z,100028.72
2022-11-01T03:35:09.046Z,100023.59
2022-11-01T03:37:39.006Z,100020.19
2022-11-01T03:40:09.667Z,100020.19
2022-11-01T03:42:39.294Z,100024.47
2022-11-01T03:45:09.647Z,100027.00
2022-11-01T03:47:38.238Z,100022.72
2022-11-01T03:50:14.811Z,100010.78
2022-11-01T03:52:43.293Z,100014.19
2022-11-01T03:55:19.387Z,100015.06
2022-11-01T03:57:48.129Z,100019.31
2022-11-01T04:00:17.259Z,100016.72
2022-11-01T04:02:45.580Z,100015.88
2022-11-01T04:05:15.407Z,100018.41
2022-11-01T04:07:44.331Z,100012.47
2022-11-01T04:10:13.066Z,100017.56
2022-11-01T04:12:41.730Z,100015.81
2022-11-01T04:15:21.437Z,100009.03
2022-11-01T04:17:59.728Z,100005.63
2022-11-01T04:20:35.469Z,100006.47
2022-11-01T04:23:04.263Z,100007.31
2022-11-01T04:25:33.891Z,100008.16
2022-11-01T04:28:02.321Z,100022.63
2022-11-01T04:30:30.911Z,100014.94
2022-11-01T04:32:59.420Z,100010.66
2022-11-01T04:35:29.471Z,100009.84
2022-11-01T04:37:58.648Z,100005.59
2022-11-01T04:40:27.447Z,99997.06
2022-11-01T04:42:56.178Z,100003.91
2022-11-01T04:45:24.478Z,100003.88
2022-11-01T04:48:02.302Z,100009.00
2022-11-01T04:50:32.588Z,100008.19
2022-11-01T04:53:01.053Z,100020.94
2022-11-01T04:55:30.468Z,100013.31
2022-11-01T04:57:58.891Z,100014.16
2022-11-01T05:00:27.808Z,100015.03
2022-11-01T05:03:02.163Z,100014.16
2022-11-01T05:05:30.806Z,100012.47
2022-11-01T05:08:03.161Z,100013.31
2022-11-01T05:10:32.710Z,100021.00
2022-11-01T05:13:01.401Z,100016.72
2022-11-01T05:15:30.113Z,100015.00
2022-11-01T05:17:58.576Z,100014.16
2022-11-01T05:20:26.918Z,100025.19
2022-11-01T05:22:58.930Z,100023.50
2022-11-01T05:25:29.754Z,100024.31
2022-11-01T05:28:00.701Z,100021.78
2022-11-01T05:30:29.408Z,100018.41
2022-11-01T05:32:58.766Z,100017.56
2022-11-01T05:35:27.439Z,100019.28
2022-11-01T05:37:56.826Z,100027.78
2022-11-01T05:40:25.758Z,100024.38
2022-11-01T05:42:55.570Z,100029.47
2022-11-01T05:45:23.909Z,100032.03
2022-11-01T05:47:52.090Z,100032.91
2022-11-01T05:50:20.489Z,100031.22
2022-11-01T05:52:50.346Z,100038.03
2022-11-01T05:55:18.939Z,100035.47
2022-11-01T06:00:18.190Z,100026.13
2022-11-01T06:02:46.447Z,100031.22
2022-11-01T06:05:14.732Z,100028.66
2022-11-01T06:07:42.909Z,100035.47
2022-11-01T06:10:11.406Z,100029.50
2022-11-01T06:12:39.710Z,100034.59
2022-11-01T06:15:08.508Z,100043.16
2022-11-01T06:17:38.209Z,100040.59
2022-11-01T06:20:07.049Z,100038.88
2022-11-01T06:22:36.259Z,100040.56
2022-11-01T06:25:04.929Z,100043.13
2022-11-01T06:27:33.600Z,100043.13
2022-11-01T06:30:02.326Z,100049.94
2022-11-01T06:32:30.610Z,100047.38
2022-11-01T06:35:00.429Z,100052.47
2022-11-01T06:37:28.810Z,100056.75
2022-11-01T06:39:57.159Z,100048.25
2022-11-01T06:42:25.481Z,100052.50
2022-11-01T06:44:53.938Z,100066.97
2022-11-01T06:47:22.251Z,100066.13
2022-11-01T06:49:50.655Z,100063.56
2022-11-01T06:52:20.369Z,100063.56
2022-11-01T06:54:48.698Z,100077.22
2022-11-01T06:57:16.884Z,100068.69
2022-11-01T06:59:45.182Z,100071.28
2022-11-01T07:02:14.654Z,100067.88
2022-11-01T07:04:43.481Z,100070.41
2022-11-01T07:07:11.742Z,100076.38
2022-11-01T07:09:41.573Z,100077.25
2022-11-01T07:12:09.945Z,100077.28
2022-11-01T07:14:38.151Z,100070.47
2022-11-01T07:17:06.552Z,100075.63
2022-11-01T07:19:34.781Z,100074.75
2022-11-01T07:22:03.112Z,100080.75
2022-11-01T07:24:31.421Z,100094.38
2022-11-01T07:27:01.202Z,100090.09
2022-11-01T07:29:29.421Z,100086.72
2022-11-01T07:31:57.711Z,100084.19
2022-11-01T07:34:26.622Z,100078.22
2022-11-01T07:36:54.965Z,100089.28
2022-11-01T07:39:23.552Z,100086.72
2022-11-01T07:41:54.645Z,100070.53
2022-11-01T07:44:24.437Z,100085.03
2022-11-01T07:46:52.723Z,100079.06
2022-11-01T07:49:21.022Z,100068.84
2022-11-01T07:51:49.391Z,100073.13
2022-11-01T07:54:17.661Z,100075.69
2022-11-01T07:56:45.960Z,100076.53
2022-11-01T07:59:14.325Z,100086.75
2022-11-01T08:01:44.179Z,100076.53
2022-11-01T08:04:12.744Z,100076.53
2022-11-01T08:06:41.024Z,100080.81
2022-11-01T08:09:09.914Z,100078.25
2022-11-01T08:11:38.131Z,100068.88
2022-11-01T08:14:11.205Z,100066.34
2022-11-01T08:16:40.421Z,100063.78
2022-11-01T08:19:11.763Z,100067.19
2022-11-01T08:21:40.132Z,100061.25
2022-11-01T08:24:08.509Z,100068.91
2022-11-01T08:26:36.802Z,100067.22
2022-11-01T08:29:05.378Z,100072.34
2022-11-01T08:31:33.671Z,100065.53
2022-11-01T08:34:01.803Z,100079.16
2022-11-01T08:36:31.448Z,100074.94
2022-11-01T08:38:59.641Z,100079.22
2022-11-01T08:41:28.601Z,100081.78
2022-11-01T08:43:59.361Z,100079.22
2022-11-01T08:46:27.623Z,100077.53
2022-11-01T08:48:59.541Z,100077.50
2022-11-01T08:51:27.816Z,100080.06
2022-11-01T08:53:57.883Z,100084.34
2022-11-01T08:56:27.871Z,100084.34
2022-11-01T08:58:56.811Z,100089.47
2022-11-01T09:01:27.388Z,100092.00
2022-11-01T09:03:57.696Z,100086.06
2022-11-01T09:06:26.140Z,100081.78
2022-11-01T09:08:54.455Z,100080.06
2022-11-01T09:11:24.975Z,100092.03
2022-11-01T09:13:54.698Z,100088.59
2022-11-01T09:16:22.834Z,100084.34
2022-11-01T09:18:51.407Z,100081.78
2022-11-01T09:21:19.904Z,100092.00
2022-11-01T09:23:48.123Z,100085.19
2022-11-01T09:26:16.275Z,100082.63
2022-11-01T09:28:46.079Z,100078.34
2022-11-01T09:31:22.010Z,100074.06
2022-11-01T09:33:50.515Z,100069.78
2022-11-01T09:36:18.692Z,100070.66
2022-11-01T09:38:47.162Z,100071.50
2022-11-01T09:41:25.610Z,100067.25
2022-11-01T09:43:57.077Z,100070.63
2022-11-01T09:46:28.578Z,100072.34
2022-11-01T09:48:57.907Z,100068.91
2022-11-01T09:51:26.506Z,100082.59
2022-11-01T09:53:56.330Z,100085.97
2022-11-01T09:56:30.483Z,100084.28
2022-11-01T09:59:06.726Z,100085.97
2022-11-01T10:01:42.659Z,100086.00
2022-11-01T10:04:21.547Z,100082.56
2022-11-01T10:06:53.715Z,100077.47
2022-11-01T10:09:29.235Z,100080.88
2022-11-01T10:12:23.157Z,100080.00
2022-11-01T10:19:17.218Z,100069.72
2022-11-01T10:25:31.505Z,100072.28
2022-11-01T10:28:11.334Z,100079.13
2022-11-01T10:30:43.521Z,100068.84
2022-11-01T10:33:22.286Z,100077.41
2022-11-01T10:35:53.427Z,100073.09
2022-11-01T10:38:41.902Z,100079.06
2022-11-01T10:41:21.344Z,100079.03
2022-11-01T10:43:51.006Z,100079.03
2022-11-01T10:46:22.808Z,100074.75
2022-11-01T10:48:53.622Z,100078.97
2022-11-01T10:51:27.679Z,100076.44
2022-11-01T10:54:00.238Z,100077.25
2022-11-01T10:56:31.561Z,100077.22
2022-11-01T10:59:01.978Z,100080.63
2022-11-01T11:01:38.205Z,100072.06
2022-11-01T11:04:10.518Z,100074.63
2022-11-01T11:06:40.960Z,100076.31
2022-11-01T11:09:18.786Z,100077.22
2022-11-01T11:11:49.118Z,100073.84
2022-11-01T11:14:20.078Z,100072.97
2022-11-01T11:16:51.685Z,100073.81
2022-11-01T11:19:24.865Z,100077.28
2022-11-01T11:21:55.152Z,100074.72
2022-11-01T11:24:25.147Z,100072.97
2022-11-01T11:26:55.265Z,100063.59
2022-11-01T11:29:32.387Z,100072.13
2022-11-01T11:32:02.735Z,100058.47
2022-11-01T11:34:32.296Z,100056.78
2022-11-01T11:37:02.264Z,100055.94
2022-11-01T11:39:32.122Z,100059.38
2022-11-01T11:42:11.454Z,100055.13
2022-11-01T11:44:41.556Z,100051.69
2022-11-01T11:47:20.714Z,100049.97
2022-11-01T11:49:53.998Z,100043.13
2022-11-01T11:52:28.413Z,100040.56
2022-11-01T11:54:57.417Z,100044.84
2022-11-01T11:57:27.245Z,100042.31
2022-11-01T11:59:56.491Z,100046.53
2022-11-01T12:02:26.028Z,100043.13
2022-11-01T12:04:57.519Z,100042.25
2022-11-01T12:07:32.686Z,100042.25
2022-11-01T12:10:03.383Z,100051.66
2022-11-01T12:12:33.150Z,100051.66
2022-11-01T12:15:03.457Z,100043.97
2022-11-01T12:17:33.869Z,100045.69
2022-11-01T12:20:13.009Z,100042.25
2022-11-01T12:22:45.392Z,100044.81
2022-11-01T12:25:16.508Z,100046.53
2022-11-01T12:27:49.991Z,100044.78
2022-11-01T12:30:20.922Z,100043.13
2022-11-01T12:32:51.646Z,100033.72
2022-11-01T12:35:26.172Z,100032.88
2022-11-01T12:38:02.551Z,100037.16
2022-11-01T12:40:31.965Z,100031.16
2022-11-01T12:43:03.343Z,100027.75
2022-11-01T12:45:34.250Z,100030.31
2022-11-01T12:48:06.139Z,100027.75
2022-11-01T12:50:39.226Z,100030.31
2022-11-01T12:53:12.103Z,100037.16
2022-11-01T12:55:41.214Z,100040.56
2022-11-01T12:58:15.713Z,100043.97
2022-11-01T13:00:52.735Z,100049.09
2022-11-01T13:03:27.664Z,100043.09
2022-11-01T13:05:59.286Z,100049.94
2022-11-01T13:08:33.407Z,100054.22
2022-11-01T13:11:07.081Z,100047.38
2022-11-01T13:13:39.915Z,100048.22
2022-11-01T13:16:11.206Z,100048.25
2022-11-01T13:18:45.479Z,100049.09
2022-11-01T13:21:19.097Z,100050.81
2022-11-01T13:23:50.575Z,100055.06
2022-11-01T13:26:21.626Z,100059.34
2022-11-01T13:28:58.120Z,100058.47
2022-11-01T13:31:32.818Z,100055.06
2022-11-01T13:34:07.043Z,100060.19
2022-11-01T13:36:39.945Z,100051.66
2022-11-01T13:39:16.589Z,100061.91
2022-11-01T13:41:50.577Z,100055.94
2022-11-01T13:44:20.769Z,100066.16
2022-11-01T13:47:08.521Z,100069.59
2022-11-01T13:49:58.705Z,100065.31
2022-11-01T13:52:29.965Z,100067.88
2022-11-01T13:55:05.281Z,100063.59
2022-11-01T13:57:34.608Z,100057.63
2022-11-01T14:00:03.869Z,100060.19
2022-11-01T14:02:57.453Z,100051.66
2022-11-01T14:05:46.436Z,100052.53
2022-11-01T14:08:31.020Z,100058.50
2022-11-01T14:11:00.768Z,100057.66
2022-11-01T14:13:37.548Z,100057.66
2022-11-01T14:16:27.685Z,100062.78
2022-11-01T14:19:06.847Z,100049.97
2022-11-01T14:21:42.415Z,100049.91
2022-11-01T14:24:19.466Z,100055.94
2022-11-01T14:26:58.747Z,100043.13
2022-11-01T14:29:29.626Z,100039.72
2022-11-01T14:31:58.407Z,100053.38
2022-11-01T14:34:29.179Z,100049.97
2022-11-01T14:36:59.661Z,100055.94
2022-11-01T14:39:32.629Z,100058.50
2022-11-01T14:42:02.816Z,100053.38
2022-11-01T14:44:34.948Z,100055.09
2022-11-01T14:47:06.799Z,100047.41
2022-11-01T14:49:40.205Z,100051.69
2022-11-01T14:52:10.900Z,100046.56
2022-11-01T14:54:43.728Z,100043.16
2022-11-01T14:57:26.155Z,100050.00
2022-11-01T14:59:56.151Z,100050.00
2022-11-01T15:02:25.617Z,100050.88
2022-11-01T15:04:58.937Z,100046.56
2022-11-01T15:07:30.862Z,100039.78
2022-11-01T15:10:01.386Z,100033.78
2022-11-01T15:12:32.114Z,100029.50
2022-11-01T15:15:02.029Z,100030.38
2022-11-01T15:17:31.806Z,100027.81
2022-11-01T15:20:01.050Z,100025.25
2022-11-01T15:22:31.781Z,100012.44
2022-11-01T15:25:01.145Z,100014.16
2022-11-01T15:27:31.458Z,100021.00
2022-11-01T15:30:01.269Z,100032.09
2022-11-01T15:32:30.657Z,100035.53
2022-11-01T15:35:00.039Z,100031.25
2022-11-01T15:37:31.590Z,100040.66
2022-11-01T15:40:00.493Z,100053.47
2022-11-01T15:42:32.575Z,100054.31
2022-11-01T15:45:15.712Z,100055.19
2022-11-01T15:47:46.579Z,100060.31
2022-11-01T15:50:15.099Z,100059.47
2022-11-01T15:52:46.471Z,100056.91
2022-11-01T15:55:19.267Z,100053.50
2022-11-01T15:57:49.488Z,100055.22
2022-11-01T16:00:19.314Z,100060.34
2022-11-01T16:02:49.943Z,100058.59
2022-11-01T16:05:20.511Z,100067.16
2022-11-01T16:07:49.188Z,100067.16
2022-11-01T16:10:20.430Z,100074.84
2022-11-01T16:12:49.488Z,100069.72
2022-11-01T16:15:23.650Z,100070.59
2022-11-01T16:17:55.878Z,100071.44
2022-11-01T16:20:30.349Z,100071.44
2022-11-01T16:23:00.292Z,100071.44
2022-11-01T16:25:29.426Z,100074.00
2022-11-01T16:28:00.357Z,100070.59
2022-11-01T16:30:37.932Z,100072.31
2022-11-01T16:33:17.236Z,100068.91
2022-11-01T16:35:46.026Z,100065.47
2022-11-01T16:38:25.322Z,100068.03
2022-11-01T16:40:56.311Z,100075.72
2022-11-01T16:43:24.830Z,100080.00
2022-11-01T16:45:53.133Z,100080.84
2022-11-01T16:48:27.271Z,100085.94
2022-11-01T16:50:56.502Z,100084.25
2022-11-01T16:53:26.281Z,100087.69
2022-11-01T16:56:01.558Z,100085.97
2022-11-01T16:58:34.387Z,100098.78
2022-11-01T17:01:03.137Z,100103.91
2022-11-01T17:03:33.238Z,100111.59
2022-11-01T17:06:01.499Z,100119.25
2022-11-01T17:08:30.715Z,100124.38
2022-11-01T17:10:58.993Z,100125.22
2022-11-01T17:13:27.360Z,100120.97
2022-11-01T17:15:56.251Z,100118.41
2022-11-01T17:18:28.036Z,100115.84
2022-11-01T17:20:59.470Z,100100.47
2022-11-01T17:23:29.438Z,100096.22
2022-11-01T17:25:57.721Z,100091.09
2022-11-01T17:28:26.166Z,100096.22
2022-11-01T17:30:54.857Z,100097.91
2022-11-01T17:33:23.106Z,100091.94
2022-11-01T17:35:52.179Z,100093.66
2022-11-01T17:38:29.985Z,100099.63
2022-11-01T17:41:00.466Z,100102.19
2022-11-01T17:43:28.739Z,100111.59
2022-11-01T17:45:59.330Z,100099.63
2022-11-01T17:48:27.649Z,100097.94
2022-11-01T17:51:00.399Z,100109.88
2022-11-01T17:53:31.319Z,100115.00
2022-11-01T17:55:59.649Z,100114.16
2022-11-01T17:58:27.871Z,100125.25
2022-11-01T18:00:57.445Z,100130.38
2022-11-01T18:03:26.627Z,100125.25
2022-11-01T18:05:56.937Z,100123.53
2022-11-01T18:08:26.933Z,100119.25
2022-11-01T18:11:02.312Z,100119.28
2022-11-01T18:13:36.948Z,100113.31
2022-11-01T18:16:08.381Z,100118.41
2022-11-01T18:18:49.453Z,100114.16
2022-11-01T18:21:23.633Z,100118.41
2022-11-01T18:23:52.624Z,100115.88
2022-11-01T18:26:23.841Z,100116.69
2022-11-01T18:28:55.602Z,100109.03
2022-11-01T18:31:27.268Z,100119.25
2022-11-01T18:33:59.821Z,100116.69
2022-11-01T18:36:31.158Z,100119.28
2022-11-01T18:39:04.592Z,100105.63
2022-11-01T18:41:34.385Z,100113.31
2022-11-01T18:44:04.303Z,100112.44
2022-11-01T18:46:38.564Z,100123.53
2022-11-01T18:49:10.355Z,100125.25
2022-11-01T18:51:40.062Z,100125.25
2022-11-01T18:54:21.314Z,100119.28
2022-11-01T18:56:52.163Z,100120.13
2022-11-01T18:59:26.464Z,100127.81
2022-11-01T19:01:56.145Z,100123.53
2022-11-01T19:04:26.175Z,100128.66
2022-11-01T19:06:56.656Z,100113.31
2022-11-01T19:09:25.992Z,100118.41
2022-11-01T19:11:58.914Z,100120.13
2022-11-01T19:14:27.965Z,100123.53
2022-11-01T19:16:56.573Z,100118.44
2022-11-01T19:19:25.006Z,100115.00
2022-11-01T19:21:57.310Z,100118.41
2022-11-01T19:24:31.785Z,100112.47
2022-11-01T19:27:02.426Z,100113.31
2022-11-01T19:29:33.634Z,100121.84
2022-11-01T19:32:04.855Z,100120.13
2022-11-01T19:34:35.224Z,100121.84
2022-11-01T19:37:06.413Z,100125.28
2022-11-01T19:39:37.774Z,100113.31
2022-11-01T19:42:13.951Z,100117.59
2022-11-01T19:44:42.331Z,100125.25
2022-11-01T19:47:25.223Z,100127.81
2022-11-01T19:49:53.904Z,100126.97
2022-11-01T19:52:25.411Z,100132.94
2022-11-01T19:54:54.796Z,100130.41
2022-11-01T19:57:29.707Z,100132.06
2022-11-01T20:00:05.416Z,100121.00
2022-11-01T20:02:40.481Z,100130.38
2022-11-01T20:05:24.035Z,100135.50
2022-11-01T20:07:52.484Z,100133.81
2022-11-01T20:10:20.711Z,100133.81
2022-11-01T20:12:50.463Z,100140.59
2022-11-01T20:15:18.735Z,100130.38
2022-11-01T20:17:47.062Z,100130.38
2022-11-01T20:20:15.737Z,100134.66
2022-11-01T20:22:54.554Z,100145.72
2022-11-01T20:25:31.312Z,100146.56
2022-11-01T20:28:02.537Z,100142.31
2022-11-01T20:30:31.232Z,100154.25
2022-11-01T20:32:59.495Z,100152.56
2022-11-01T20:35:27.943Z,100154.28
2022-11-01T20:37:56.310Z,100151.72
2022-11-01T20:40:25.479Z,100161.09
2022-11-01T20:42:54.655Z,100145.75
2022-11-01T20:45:24.412Z,100138.91
2022-11-01T20:47:52.747Z,100137.22
2022-11-01T20:50:21.105Z,100132.09
2022-11-01T20:52:50.571Z,100134.66
2022-11-01T20:55:18.922Z,100128.66
2022-11-01T20:57:47.303Z,100139.78
2022-11-01T21:00:18.657Z,100141.50
2022-11-01T21:02:48.751Z,100150.84
2022-11-01T21:05:20.572Z,100130.38
2022-11-01T21:07:48.962Z,100130.38
2022-11-01T21:10:34.881Z,100135.50
2022-11-01T21:13:03.857Z,100132.97
2022-11-01T21:15:36.983Z,100144.03
2022-11-01T21:18:23.804Z,100142.34
2022-11-01T21:20:54.643Z,100133.78
2022-11-01T21:23:25.395Z,100123.56
2022-11-01T21:25:55.135Z,100111.63
2022-11-01T21:28:28.036Z,100121.88
2022-11-01T21:30:57.404Z,100101.41
2022-11-01T21:33:32.525Z,100099.69
2022-11-01T21:36:02.363Z,100106.50
2022-11-01T21:38:35.972Z,100127.84
2022-11-01T21:41:15.316Z,100135.50
2022-11-01T21:43:45.264Z,100137.22
2022-11-01T21:46:15.656Z,100128.69
2022-11-01T21:48:44.003Z,100123.56
2022-11-01T21:51:13.671Z,100113.34
2022-11-01T21:53:42.036Z,100111.63
2022-11-01T21:56:10.315Z,100107.34
2022-11-01T21:58:38.682Z,100117.59
2022-11-01T22:01:08.432Z,100126.97
2022-11-01T22:03:36.869Z,100126.97
2022-11-01T22:06:05.256Z,100130.38
2022-11-01T22:08:35.016Z,100128.69
2022-11-01T22:11:03.242Z,100132.09
2022-11-01T22:13:31.575Z,100136.34
2022-11-01T22:15:59.946Z,100135.50
2022-11-01T22:18:28.228Z,100144.88
2022-11-01T22:20:56.488Z,100126.97
2022-11-01T22:23:24.838Z,100121.00
2022-11-01T22:25:54.477Z,100115.91
2022-11-01T22:28:22.785Z,100118.44
2022-11-01T22:30:51.050Z,100116.75
2022-11-01T22:33:19.461Z,100117.59
2022-11-01T22:35:47.698Z,100110.75
2022-11-01T22:38:17.948Z,100105.66
2022-11-01T22:40:49.068Z,100110.78
2022-11-01T22:43:19.458Z,100100.53
2022-11-01T22:45:47.767Z,100106.50
2022-11-01T22:48:16.502Z,100105.66
2022-11-01T22:50:44.846Z,100114.19
2022-11-01T22:53:15.090Z,100115.00
2022-11-01T22:55:44.294Z,100118.44
2022-11-01T22:58:26.436Z,100126.09
2022-11-01T23:00:55.589Z,100136.31
2022-11-01T23:03:24.834Z,100126.94
2022-11-01T23:05:54.805Z,100135.47
2022-11-01T23:08:25.118Z,100140.59
2022-11-01T23:10:53.956Z,100133.75
2022-11-01T23:13:35.348Z,100136.31
2022-11-01T23:16:05.339Z,100137.16
2022-11-01T23:18:34.808Z,100132.06
2022-11-01T23:21:03.989Z,100132.91
2022-11-01T23:23:32.506Z,100129.50
2022-11-01T23:26:03.327Z,100133.75
2022-11-01T23:28:35.449Z,100126.97
2022-11-01T23:31:04.816Z,100123.56
2022-11-01T23:33:36.393Z,100122.69
2022-11-01T23:36:04.938Z,100127.75
2022-11-01T23:38:35.526Z,100118.38
2022-11-01T23:41:04.046Z,100113.25
2022-11-01T23:43:35.514Z,100125.19
2022-11-01T23:46:03.767Z,100120.88
2022-11-01T23:48:32.018Z,100124.28
2022-11-01T23:51:00.669Z,100125.16
2022-11-01T23:53:33.361Z,100124.28
2022-11-01T23:56:02.737Z,100127.72
2022-11-01T23:58:32.800Z,100128.53
